Time;durP1;ratioP1;P1;durP2;ratioP2;P2;SDS_P1;SDS_P2;PMS_P1;PMS_P2;Temp;Humidity;BMP_temperature;BMP_pressure;BME280_temperature;BME280_humidity;BME280_pressure;Samples;Min_cycle;Max_cycle;Signal;HPM_P1;HPM_P2
2023/07/21 00:01:53;;;;;;;3.22;0.90;;;;;;;11.63;52.96;101257.81;4967199;28;20038;-71
2023/07/21 00:04:20;;;;;;;2.63;0.47;;;;;;;11.84;52.89;101254.41;4965203;28;20118;-71
2023/07/21 00:06:46;;;;;;;3.10;0.45;;;;;;;12.05;52.14;101260.53;4965871;28;20141;-72
2023/07/21 00:09:11;;;;;;;1.50;0.50;;;;;;;12.13;52.03;101262.84;4944187;28;20038;-71
2023/07/21 00:11:38;;;;;;;4.28;0.70;;;;;;;12.13;51.79;101262.00;4965086;28;20023;-71
2023/07/21 00:14:10;;;;;;;1.45;0.50;;;;;;;12.01;51.93;101252.88;4972388;28;20051;-71
2023/07/21 00:16:35;;;;;;;2.67;0.60;;;;;;;12.05;52.00;101249.22;4968693;28;20033;-72
2023/07/21 00:19:01;;;;;;;3.55;0.45;;;;;;;11.94;51.87;101240.94;4962898;28;20038;-71
2023/07/21 00:21:29;;;;;;;1.13;0.77;;;;;;;11.82;52.27;101243.13;4968210;28;20030;-72
2023/07/21 00:23:55;;;;;;;3.40;0.65;;;;;;;11.81;52.83;101240.56;4969645;28;20145;-71
2023/07/21 00:26:21;;;;;;;1.98;0.80;;;;;;;11.97;52.24;101240.78;4971718;28;20088;-71
2023/07/21 00:28:46;;;;;;;1.45;0.70;;;;;;;11.88;52.26;101235.00;4965966;28;20239;-69
2023/07/21 00:31:13;;;;;;;3.63;1.02;;;;;;;11.86;52.40;101239.44;4967410;28;20185;-70
2023/07/21 00:33:39;;;;;;;3.05;0.55;;;;;;;11.87;52.53;101235.94;4957499;28;20146;-70
2023/07/21 00:36:07;;;;;;;3.45;0.68;;;;;;;11.86;52.80;101236.81;4966575;28;20044;-70
2023/07/21 00:38:33;;;;;;;1.35;0.60;;;;;;;11.88;52.43;101234.16;4955721;28;20043;-69
2023/07/21 00:40:58;;;;;;;2.78;0.70;;;;;;;11.87;52.93;101241.16;4950955;28;20022;-69
2023/07/21 00:43:25;;;;;;;1.30;0.63;;;;;;;11.85;52.83;101237.75;4948262;28;20198;-67
2023/07/21 00:45:53;;;;;;;3.40;0.77;;;;;;;11.87;52.59;101230.69;4951381;28;20039;-68
2023/07/21 00:48:21;;;;;;;1.80;0.70;;;;;;;11.83;52.70;101229.09;4949397;28;20038;-66
2023/07/21 00:50:50;;;;;;;1.50;0.77;;;;;;;11.72;53.06;101233.88;4942355;28;20073;-66
2023/07/21 00:53:19;;;;;;;1.85;0.60;;;;;;;11.76;52.98;101232.00;4958808;28;20038;-69
2023/07/21 00:55:48;;;;;;;2.35;1.00;;;;;;;11.76;53.18;101229.38;4968795;28;20125;-68
2023/07/21 00:58:15;;;;;;;2.85;0.45;;;;;;;11.81;53.18;101230.94;4985349;28;20468;-68
2023/07/21 01:00:41;;;;;;;0.90;0.40;;;;;;;11.86;53.01;101223.72;4950558;28;20046;-68
2023/07/21 01:03:09;;;;;;;1.17;0.68;;;;;;;11.88;53.09;101221.91;4971855;28;20560;-68
2023/07/21 01:05:41;;;;;;;3.35;1.17;;;;;;;11.95;52.89;101222.50;4962853;28;20714;-68
2023/07/21 01:08:07;;;;;;;1.20;0.80;;;;;;;12.00;52.76;101224.94;4972110;28;20158;-68
2023/07/21 01:10:37;;;;;;;3.92;0.98;;;;;;;11.99;52.87;101218.00;4965633;28;20222;-69
2023/07/21 01:13:03;;;;;;;1.88;1.38;;;;;;;11.85;53.08;101215.94;4971795;28;20189;-68
2023/07/21 01:15:30;;;;;;;3.40;0.82;;;;;;;11.95;53.04;101213.81;4967909;28;20073;-68
2023/07/21 01:17:57;;;;;;;3.72;1.63;;;;;;;12.01;52.71;101203.09;4965703;28;20480;-70
2023/07/21 01:20:25;;;;;;;3.42;1.05;;;;;;;12.07;52.83;101202.84;4968123;28;20272;-69
2023/07/21 01:22:55;;;;;;;2.42;1.25;;;;;;;12.09;52.38;101203.63;4967876;28;20034;-69
2023/07/21 01:25:21;;;;;;;1.10;0.57;;;;;;;12.17;52.65;101201.53;4953245;28;20042;-70
2023/07/21 01:27:49;;;;;;;3.47;1.48;;;;;;;12.21;52.43;101197.88;4967237;28;20398;-73
2023/07/21 01:30:18;;;;;;;3.63;1.17;;;;;;;12.21;52.54;101187.38;4954059;28;20627;-69
2023/07/21 01:32:46;;;;;;;3.92;2.08;;;;;;;12.18;52.66;101187.53;4964852;28;20049;-68
2023/07/21 01:35:15;;;;;;;3.42;0.80;;;;;;;12.22;52.55;101189.13;4986675;28;20401;-69
2023/07/21 01:37:43;;;;;;;2.83;0.90;;;;;;;12.22;52.43;101178.63;4967082;28;20451;-69
2023/07/21 01:40:15;;;;;;;1.60;1.05;;;;;;;12.23;52.40;101179.47;4972161;28;20120;-69
2023/07/21 01:42:41;;;;;;;;;;;;;;;12.05;52.81;101183.72;4981860;28;20141;-70
2023/07/21 01:45:07;;;;;;;3.28;1.95;;;;;;;12.08;52.95;101184.41;4969201;28;19949;-69
2023/07/21 01:47:34;;;;;;;2.08;1.17;;;;;;;11.95;53.11;101177.13;4948493;28;20068;-70
2023/07/21 01:50:00;;;;;;;2.20;0.95;;;;;;;11.95;52.76;101179.75;4969952;28;20038;-69
2023/07/21 01:52:31;;;;;;;3.92;1.25;;;;;;;11.88;52.94;101179.16;4965639;28;20073;-69
2023/07/21 01:55:04;;;;;;;2.07;1.20;;;;;;;11.83;53.11;101170.63;4967222;28;20034;-70
2023/07/21 01:57:38;;;;;;;2.22;1.10;;;;;;;11.68;53.09;101175.53;4984031;28;20061;-70
2023/07/21 02:00:08;;;;;;;3.10;1.15;;;;;;;11.64;53.25;101170.47;4960775;28;20030;-70
2023/07/21 02:02:47;;;;;;;3.15;1.67;;;;;;;11.46;53.58;101167.69;4966046;28;20472;-70
2023/07/21 02:05:23;;;;;;;2.35;1.00;;;;;;;11.45;53.62;101165.13;4970029;28;20030;-70
2023/07/21 02:07:50;;;;;;;2.85;1.42;;;;;;;11.33;53.71;101171.69;4955392;28;20104;-70
2023/07/21 02:10:16;;;;;;;3.47;1.48;;;;;;;11.32;53.62;101162.13;4946176;28;20737;-69
2023/07/21 02:12:47;;;;;;;3.08;1.20;;;;;;;11.36;53.73;101162.88;4964342;28;20197;-70
2023/07/21 02:15:14;;;;;;;2.90;1.52;;;;;;;11.29;53.63;101159.63;4969929;28;20113;-70
2023/07/21 02:17:40;;;;;;;2.33;1.05;;;;;;;11.28;53.90;101157.91;4967489;28;20097;-70
2023/07/21 02:20:09;;;;;;;2.38;1.10;;;;;;;11.27;53.70;101155.38;4967162;28;20570;-71
2023/07/21 02:22:40;;;;;;;5.25;1.70;;;;;;;11.22;54.18;101145.09;4963708;28;20039;-70
2023/07/21 02:25:09;;;;;;;2.67;1.90;;;;;;;11.20;53.78;101142.53;4951362;28;20034;-70
2023/07/21 02:27:35;;;;;;;5.32;1.10;;;;;;;11.20;54.21;101149.53;4964396;28;21227;-70
2023/07/21 02:30:02;;;;;;;4.20;1.10;;;;;;;11.18;54.06;101144.34;4972094;28;20117;-70
2023/07/21 02:32:28;;;;;;;2.92;1.50;;;;;;;11.15;54.20;101146.22;4966117;28;20058;-70
2023/07/21 02:34:54;;;;;;;3.80;1.48;;;;;;;11.11;54.30;101150.72;4965667;28;20064;-70
2023/07/21 02:37:19;;;;;;;3.90;1.13;;;;;;;11.09;54.20;101142.09;4963107;28;20072;-66
2023/07/21 02:39:45;;;;;;;4.25;1.08;;;;;;;11.07;54.01;101146.53;4966529;28;20221;-67
2023/07/21 02:42:11;;;;;;;2.58;1.80;;;;;;;10.98;54.46;101154.72;4969050;28;20034;-68
2023/07/21 02:44:36;;;;;;;2.40;1.52;;;;;;;10.92;54.55;101144.47;4962310;28;20070;-67
2023/07/21 02:47:02;;;;;;;4.18;1.58;;;;;;;10.93;54.70;101141.81;4952377;28;20045;-66
2023/07/21 02:49:29;;;;;;;2.67;1.75;;;;;;;10.96;54.55;101141.69;4966690;28;20041;-67
2023/07/21 02:51:55;;;;;;;2.78;1.85;;;;;;;10.98;54.41;101145.09;4965875;28;20026;-68
2023/07/21 02:54:20;;;;;;;5.10;1.75;;;;;;;10.99;53.99;101144.19;4969034;28;20073;-68
2023/07/21 02:56:46;;;;;;;2.50;1.70;;;;;;;10.89;54.43;101144.59;4966042;28;20496;-67
2023/07/21 02:59:18;;;;;;;4.20;1.33;;;;;;;10.79;54.42;101136.19;4956449;28;20525;-73
2023/07/21 03:01:54;;;;;;;4.28;1.20;;;;;;;10.82;54.34;101134.34;4981456;28;20042;-73
2023/07/21 03:04:25;;;;;;;3.63;1.40;;;;;;;10.85;54.31;101138.63;4951425;28;20141;-70
2023/07/21 03:06:56;;;;;;;5.07;1.90;;;;;;;10.87;54.49;101131.56;4966480;28;20402;-70
2023/07/21 03:09:29;;;;;;;3.08;2.20;;;;;;;10.80;54.68;101136.13;4948981;28;20023;-70
2023/07/21 03:11:59;;;;;;;2.28;1.80;;;;;;;10.83;54.54;101140.44;4930227;28;20401;-71
2023/07/21 03:14:48;;;;;;;3.65;2.28;;;;;;;10.81;54.75;101137.88;4960295;28;20038;-72
2023/07/21 03:17:16;;;;;;;3.95;1.83;;;;;;;10.80;54.97;101132.69;4952543;28;20038;-73
2023/07/21 03:19:44;;;;;;;2.13;1.92;;;;;;;10.86;54.82;101135.13;4970028;28;20556;-67
2023/07/21 03:22:15;;;;;;;6.55;2.58;;;;;;;10.86;54.61;101136.84;4962231;28;20460;-67
2023/07/21 03:24:44;;;;;;;3.08;2.10;;;;;;;10.81;54.72;101129.16;4947089;28;20098;-68
2023/07/21 03:27:12;;;;;;;6.88;2.75;;;;;;;10.63;54.94;101131.50;4946094;28;20464;-70
2023/07/21 03:29:39;;;;;;;5.50;2.45;;;;;;;10.53;54.99;101130.16;4932747;28;20030;-72
2023/07/21 03:32:07;;;;;;;3.03;2.03;;;;;;;10.60;55.23;101133.41;4944473;28;20034;-73
2023/07/21 03:34:35;;;;;;;3.60;1.92;;;;;;;10.66;55.29;101132.31;4929918;28;20089;-67
2023/07/21 03:37:06;;;;;;;2.72;1.80;;;;;;;10.65;54.95;101128.84;4947026;28;20078;-69
2023/07/21 03:39:31;;;;;;;6.75;3.33;;;;;;;10.66;54.91;101132.31;4965553;28;20034;-68
2023/07/21 03:41:57;;;;;;;3.58;2.50;;;;;;;10.63;55.02;101133.28;4962496;28;20038;-69
2023/07/21 03:44:22;;;;;;;3.63;2.38;;;;;;;10.63;55.21;101128.91;4966479;28;20041;-69
2023/07/21 03:46:47;;;;;;;3.63;2.00;;;;;;;10.57;55.29;101129.16;4966412;28;20061;-69
2023/07/21 03:49:29;;;;;;;5.05;2.78;;;;;;;10.55;55.61;101124.88;4953472;28;20042;-67
2023/07/21 03:52:05;;;;;;;5.65;2.80;;;;;;;10.47;55.76;101124.28;4966579;28;20029;-72
2023/07/21 03:54:32;;;;;;;4.95;2.70;;;;;;;10.50;55.59;101125.03;4962444;28;20034;-71
2023/07/21 03:56:58;;;;;;;5.13;2.78;;;;;;;10.44;56.16;101117.44;4978053;28;20046;-68
2023/07/21 03:59:24;;;;;;;7.10;2.30;;;;;;;10.46;56.01;101110.38;4969691;28;20026;-76
2023/07/21 04:01:49;;;;;;;3.22;2.58;;;;;;;10.56;56.34;101110.91;4949226;28;20035;-74
2023/07/21 04:04:20;;;;;;;3.60;2.22;;;;;;;10.70;55.94;101113.00;4959539;28;20696;-71
2023/07/21 04:06:46;;;;;;;4.45;2.30;;;;;;;10.71;55.90;101114.72;4979133;28;20046;-69
2023/07/21 04:09:15;;;;;;;3.13;2.17;;;;;;;10.86;56.03;101129.88;4965940;28;20221;-68
2023/07/21 04:11:41;;;;;;;6.10;2.20;;;;;;;11.12;55.62;101121.03;4968038;28;20038;-73
2023/07/21 04:14:09;;;;;;;6.10;3.08;;;;;;;11.40;55.26;101128.66;4948546;28;20122;-72
2023/07/21 04:16:34;;;;;;;4.05;1.63;;;;;;;11.55;54.87;101128.97;4941885;28;20030;-73
2023/07/21 04:19:00;;;;;;;4.63;2.25;;;;;;;11.77;54.31;101132.44;4949242;28;20066;-69
2023/07/21 04:21:26;;;;;;;5.97;2.50;;;;;;;11.92;54.08;101127.50;4945672;28;20482;-70
2023/07/21 04:23:57;;;;;;;3.00;2.15;;;;;;;11.99;53.66;101135.03;4967484;28;20042;-73
2023/07/21 04:26:26;;;;;;;5.00;2.95;;;;;;;11.99;52.66;101128.94;4980939;28;20460;-70
2023/07/21 04:28:51;;;;;;;3.97;2.58;;;;;;;12.00;53.10;101128.00;4965624;28;20437;-72
2023/07/21 04:31:21;;;;;;;4.63;2.83;;;;;;;11.91;53.28;101133.66;4966328;28;20031;-68
2023/07/21 04:33:59;;;;;;;5.78;2.78;;;;;;;11.99;53.31;101123.72;4980824;28;20038;-69
2023/07/21 04:36:24;;;;;;;6.55;3.55;;;;;;;11.88;52.52;101122.38;4978379;28;21223;-70
2023/07/21 04:38:52;;;;;;;6.93;3.03;;;;;;;11.86;53.61;101132.06;4945645;28;20105;-71
2023/07/21 04:41:19;;;;;;;4.53;3.40;;;;;;;11.87;53.14;101125.94;4961756;28;20150;-68
2023/07/21 04:43:44;;;;;;;5.30;2.97;;;;;;;12.02;53.14;101134.03;4966016;28;20133;-68
2023/07/21 04:46:12;;;;;;;4.15;2.35;;;;;;;12.12;53.16;101127.50;4966602;28;20513;-67
2023/07/21 04:48:38;;;;;;;3.85;2.55;;;;;;;12.17;52.65;101128.16;4975726;28;20476;-68
2023/07/21 04:51:06;;;;;;;6.30;2.92;;;;;;;12.16;52.80;101130.88;4967551;28;20067;-68
2023/07/21 04:53:31;;;;;;;3.22;2.53;;;;;;;12.06;52.84;101133.00;4956034;28;20054;-71
2023/07/21 04:55:57;;;;;;;5.85;3.55;;;;;;;12.22;52.76;101133.19;4947997;28;20039;-69
2023/07/21 04:58:24;;;;;;;4.40;3.33;;;;;;;12.34;52.33;101134.47;4942887;28;20315;-70
2023/07/21 05:00:51;;;;;;;4.80;2.67;;;;;;;12.41;52.24;101130.66;4967781;28;20181;-70
2023/07/21 05:03:16;;;;;;;4.47;3.20;;;;;;;12.22;51.80;101134.06;4981888;28;20046;-72
2023/07/21 05:05:45;;;;;;;7.82;2.92;;;;;;;12.34;52.40;101139.72;4969946;28;20619;-74
2023/07/21 05:08:11;;;;;;;7.95;3.72;;;;;;;12.77;51.85;101127.34;4970667;28;20112;-68
2023/07/21 05:10:36;;;;;;;4.40;2.88;;;;;;;13.19;50.95;101139.41;4964422;28;20430;-69
2023/07/21 05:13:06;;;;;;;5.72;3.97;;;;;;;13.49;48.73;101131.84;4941984;28;20561;-69
2023/07/21 05:15:42;;;;;;;11.75;3.80;;;;;;;13.50;48.57;101129.16;4966832;28;20062;-69
2023/07/21 05:18:28;;;;;;;3.70;2.10;;;;;;;13.39;49.67;101139.31;4948029;28;20121;-70
2023/07/21 05:21:06;;;;;;;3.53;2.33;;;;;;;13.42;50.12;101130.44;4950524;28;20407;-69
2023/07/21 05:23:57;;;;;;;5.22;3.00;;;;;;;13.35;48.71;101129.88;4948014;28;20137;-67
2023/07/21 05:26:24;;;;;;;4.25;2.58;;;;;;;13.27;49.31;101130.25;4928482;28;20113;-72
2023/07/21 05:28:54;;;;;;;5.80;2.95;;;;;;;14.69;48.84;101126.69;4965492;28;20455;-70
2023/07/21 05:31:28;;;;;;;6.50;2.33;;;;;;;17.63;41.74;101122.50;4953193;28;20034;-68
2023/07/21 05:34:01;;;;;;;3.85;2.63;;;;;;;19.62;37.96;101133.38;4969987;28;20070;-68
2023/07/21 05:36:28;;;;;;;5.43;2.58;;;;;;;19.49;37.12;101133.41;4967567;28;20046;-68
2023/07/21 05:38:56;;;;;;;4.70;2.05;;;;;;;20.44;34.24;101126.25;4963581;28;20642;-68
2023/07/21 05:41:24;;;;;;;3.83;1.92;;;;;;;20.76;34.07;101122.84;4966397;28;20073;-70
2023/07/21 05:43:53;;;;;;;3.30;1.73;;;;;;;20.63;33.83;101119.47;4968821;28;20034;-69
2023/07/21 05:46:19;;;;;;;3.47;2.08;;;;;;;19.30;36.00;101121.50;4961923;28;20092;-70
2023/07/21 05:48:53;;;;;;;2.75;1.63;;;;;;;19.85;36.55;101121.03;4965558;28;20049;-70
2023/07/21 05:51:19;;;;;;;2.92;1.92;;;;;;;20.76;34.43;101114.03;4968195;28;20038;-67
2023/07/21 05:53:50;;;;;;;4.00;1.98;;;;;;;20.02;34.25;101104.69;4977772;28;20141;-70
2023/07/21 05:56:20;;;;;;;2.88;1.75;;;;;;;20.12;34.42;101108.31;4961640;28;20330;-68
2023/07/21 05:59:03;;;;;;;2.35;1.50;;;;;;;21.71;32.93;101111.63;4968905;28;20350;-71
2023/07/21 06:01:31;;;;;;;3.47;1.73;;;;;;;21.17;32.44;101107.22;4964084;28;20034;-69
2023/07/21 06:03:58;;;;;;;2.42;1.15;;;;;;;22.29;30.93;101097.88;4954182;28;20045;-72
2023/07/21 06:06:24;;;;;;;2.58;1.05;;;;;;;23.26;29.66;101100.84;4965306;28;20315;-71
2023/07/21 06:09:04;;;;;;;2.78;1.15;;;;;;;23.76;29.69;101097.19;4949032;28;20054;-69
2023/07/21 06:11:37;;;;;;;1.65;0.82;;;;;;;23.35;28.55;101094.69;4944673;28;20125;-71
2023/07/21 06:14:16;;;;;;;3.08;0.85;;;;;;;23.17;29.09;101101.66;4932522;28;20050;-71
2023/07/21 06:16:58;;;;;;;2.70;0.57;;;;;;;23.77;28.01;101094.38;4938664;28;20038;-71
2023/07/21 06:19:24;;;;;;;3.42;1.02;;;;;;;24.00;26.94;101083.41;4964906;28;20088;-71
2023/07/21 06:21:50;;;;;;;3.22;0.40;;;;;;;24.46;27.53;101079.06;4940225;28;20118;-71
2023/07/21 06:24:21;;;;;;;1.90;1.35;;;;;;;24.68;26.29;101085.81;4926835;28;20049;-72
2023/07/21 06:26:49;;;;;;;2.33;0.50;;;;;;;23.56;27.32;101069.69;4982046;28;20034;-72
2023/07/21 06:29:16;;;;;;;1.58;0.40;;;;;;;23.49;27.15;101068.56;4944511;28;20282;-71
2023/07/21 06:31:49;;;;;;;1.13;0.30;;;;;;;22.09;29.48;101067.63;4934890;28;20146;-71
2023/07/21 06:34:35;;;;;;;1.73;0.57;;;;;;;23.18;28.78;101066.00;4959719;28;21090;-71
2023/07/21 06:37:20;;;;;;;1.88;0.38;;;;;;;25.10;26.80;101063.06;4964877;28;20279;-69
2023/07/21 06:40:09;;;;;;;3.80;0.22;;;;;;;26.64;23.72;101054.38;4967936;28;20034;-69
2023/07/21 06:42:49;;;;;;;4.93;0.32;;;;;;;25.53;24.53;101048.06;4957562;28;20112;-69
2023/07/21 06:45:47;;;;;;;1.50;0.20;;;;;;;23.95;26.09;101050.97;4935695;28;20042;-70
2023/07/21 06:48:31;;;;;;;1.63;0.10;;;;;;;22.28;27.88;101059.75;4943037;28;20193;-69
2023/07/21 06:51:05;;;;;;;1.05;0.10;;;;;;;22.56;27.42;101055.50;4951238;28;20493;-71
2023/07/21 06:53:31;;;;;;;1.67;0.35;;;;;;;23.82;25.14;101051.25;4943799;28;20058;-67
2023/07/21 06:55:57;;;;;;;0.75;0.20;;;;;;;23.75;26.93;101059.00;4958720;28;20030;-68
2023/07/21 06:58:23;;;;;;;0.73;0.10;;;;;;;24.44;24.89;101047.13;4927895;28;20030;-70
2023/07/21 07:00:48;;;;;;;3.13;0.20;;;;;;;25.60;24.12;101039.28;4947929;28;20039;-69
2023/07/21 07:03:14;;;;;;;1.42;0.38;;;;;;;25.87;24.25;101040.13;4943382;28;20046;-67
2023/07/21 07:05:45;;;;;;;2.33;0.20;;;;;;;26.65;22.34;101049.88;4943280;28;20497;-70
2023/07/21 07:08:12;;;;;;;3.20;0.20;;;;;;;27.03;20.86;101048.44;4958908;28;20152;-71
2023/07/21 07:10:38;;;;;;;0.45;0.20;;;;;;;27.66;19.32;101046.13;4959442;28;20046;-71
2023/07/21 07:13:04;;;;;;;4.00;0.50;;;;;;;26.78;20.65;101042.22;4969036;28;20397;-71
2023/07/21 07:15:30;;;;;;;0.95;0.28;;;;;;;28.59;19.41;101040.13;4964964;28;20034;-70
2023/07/21 07:17:55;;;;;;;0.95;0.20;;;;;;;29.32;18.14;101037.94;4962066;28;20327;-70
2023/07/21 07:20:21;;;;;;;1.83;0.20;;;;;;;28.42;18.97;101033.16;4965010;28;20118;-69
2023/07/21 07:22:48;;;;;;;2.45;0.20;;;;;;;26.94;19.62;101030.66;4967780;28;20398;-70
2023/07/21 07:25:13;;;;;;;1.10;0.40;;;;;;;27.17;20.79;101032.72;4951342;28;20092;-71
2023/07/21 07:27:39;;;;;;;2.72;0.30;;;;;;;27.89;20.84;101032.81;4960420;28;20046;-69
2023/07/21 07:30:07;;;;;;;2.42;0.20;;;;;;;29.22;18.92;101026.59;4968477;28;20109;-70
2023/07/21 07:32:32;;;;;;;2.50;0.30;;;;;;;28.96;18.64;101028.59;4978734;28;20038;-70
2023/07/21 07:34:58;;;;;;;2.85;0.40;;;;;;;29.80;18.70;101026.88;4969546;28;20480;-74
2023/07/21 07:37:26;;;;;;;1.08;0.20;;;;;;;29.02;18.25;101028.94;4963459;28;20843;-74
2023/07/21 07:39:52;;;;;;;2.10;0.17;;;;;;;27.80;19.09;101032.00;4947727;28;20038;-71
2023/07/21 07:42:18;;;;;;;0.68;0.20;;;;;;;28.07;19.18;101032.59;4967838;28;20034;-73
2023/07/21 07:44:44;;;;;;;3.60;0.20;;;;;;;29.26;18.29;101038.66;4964590;28;20045;-73
2023/07/21 07:47:09;;;;;;;0.90;0.22;;;;;;;30.52;16.76;101036.97;4966426;28;20030;-70
2023/07/21 07:49:36;;;;;;;0.45;0.10;;;;;;;29.93;16.98;101037.84;4962831;28;20030;-71
2023/07/21 07:52:01;;;;;;;3.03;0.20;;;;;;;29.07;18.58;101035.44;4965009;28;20088;-71
2023/07/21 07:54:27;;;;;;;1.85;0.20;;;;;;;27.19;19.96;101038.75;4965711;28;20532;-71
2023/07/21 07:56:52;;;;;;;2.13;0.20;;;;;;;25.92;20.87;101036.94;4964239;28;21620;-71
2023/07/21 07:59:18;;;;;;;0.50;0.20;;;;;;;26.37;20.56;101033.16;4965286;28;20037;-72
2023/07/21 08:01:47;;;;;;;1.48;0.30;;;;;;;26.30;21.98;101032.97;4960950;28;20045;-72
2023/07/21 08:04:12;;;;;;;1.67;0.30;;;;;;;27.93;19.41;101037.66;4950544;28;20066;-71
2023/07/21 08:06:38;;;;;;;0.77;0.20;;;;;;;29.66;18.30;101028.56;4960605;28;20130;-73
2023/07/21 08:09:05;;;;;;;0.80;0.20;;;;;;;30.38;16.76;101034.13;4966568;28;20504;-72
2023/07/21 08:11:31;;;;;;;4.18;0.30;;;;;;;29.98;16.79;101032.75;4965209;28;20433;-70
2023/07/21 08:13:57;;;;;;;0.57;0.10;;;;;;;29.28;18.33;101033.94;4964046;28;20371;-70
2023/07/21 08:16:29;;;;;;;0.85;0.20;;;;;;;26.57;19.91;101042.59;4965033;28;20552;-70
2023/07/21 08:18:56;;;;;;;0.60;0.20;;;;;;;25.07;22.11;101033.97;4977902;28;20097;-70
2023/07/21 08:21:27;;;;;;;0.57;0.10;;;;;;;24.21;22.79;101049.34;4965108;28;20030;-71
2023/07/21 08:23:54;;;;;;;0.40;0.20;;;;;;;23.77;24.46;101051.69;4963501;28;21198;-71
2023/07/21 08:26:21;;;;;;;0.40;0.20;;;;;;;26.45;23.26;101043.94;4964316;28;20293;-71
2023/07/21 08:28:47;;;;;;;0.20;0.10;;;;;;;27.40;20.09;101041.75;4961515;28;20053;-71
2023/07/21 08:31:12;;;;;;;0.68;0.10;;;;;;;28.87;19.03;101045.00;4980525;28;20023;-73
2023/07/21 08:33:39;;;;;;;0.75;0.20;;;;;;;27.26;20.60;101042.44;4962286;28;20038;-71
2023/07/21 08:36:05;;;;;;;1.13;0.10;;;;;;;25.20;22.61;101039.75;4967715;28;20030;-71
2023/07/21 08:38:34;;;;;;;1.05;0.30;;;;;;;24.88;23.38;101035.75;4965884;28;20042;-71
2023/07/21 08:41:04;;;;;;;0.70;0.30;;;;;;;24.33;23.49;101041.13;4968366;28;20492;-71
2023/07/21 08:43:30;;;;;;;1.17;0.60;;;;;;;24.97;23.91;101034.00;4961110;28;20226;-71
2023/07/21 08:45:59;;;;;;;3.20;0.17;;;;;;;26.74;21.07;101034.63;4971040;28;20034;-69
2023/07/21 08:48:25;;;;;;;1.98;0.20;;;;;;;27.14;20.71;101035.72;4954537;28;20327;-70
2023/07/21 08:50:55;;;;;;;1.23;0.10;;;;;;;27.93;20.02;101031.47;4953354;28;20038;-70
2023/07/21 08:53:22;;;;;;;0.57;0.10;;;;;;;28.18;19.94;101029.53;4948934;28;20051;-70
2023/07/21 08:55:48;;;;;;;1.20;0.10;;;;;;;28.96;19.27;101017.84;4944413;28;20069;-71
2023/07/21 08:58:15;;;;;;;1.35;0.20;;;;;;;28.90;19.02;101020.41;4938447;28;20495;-71
2023/07/21 09:00:40;;;;;;;0.57;0.13;;;;;;;26.97;20.44;101019.59;4960833;28;20516;-73
2023/07/21 09:03:06;;;;;;;1.15;0.20;;;;;;;27.30;21.68;101017.78;4970635;28;20324;-71
2023/07/21 09:05:31;;;;;;;0.95;0.10;;;;;;;28.51;19.14;101008.72;4961555;28;20710;-71
2023/07/21 09:07:57;;;;;;;0.52;0.20;;;;;;;29.96;19.73;101003.28;4964109;28;20090;-71
2023/07/21 09:10:33;;;;;;;2.47;0.20;;;;;;;26.43;20.93;101005.72;4964896;28;20026;-71
2023/07/21 09:13:00;;;;;;;1.50;0.10;;;;;;;27.65;20.12;101009.53;4964994;28;20381;-71
2023/07/21 09:15:26;;;;;;;2.53;0.20;;;;;;;28.30;19.25;101006.66;4966957;28;20144;-72
2023/07/21 09:17:52;;;;;;;0.95;0.10;;;;;;;29.37;18.67;101003.22;4959788;28;20049;-70
2023/07/21 09:20:18;;;;;;;0.98;0.20;;;;;;;29.53;18.48;100997.69;4963725;28;20100;-71
2023/07/21 09:22:52;;;;;;;1.58;0.30;;;;;;;28.25;20.24;100992.91;4961171;28;20042;-71
2023/07/21 09:25:24;;;;;;;0.88;0.20;;;;;;;27.73;20.58;100998.78;4965240;28;20030;-71
2023/07/21 09:27:55;;;;;;;0.80;0.20;;;;;;;25.17;23.95;101002.59;4960783;28;20618;-70
2023/07/21 09:30:22;;;;;;;1.45;0.20;;;;;;;25.34;24.19;101009.78;4964886;28;20388;-70
2023/07/21 09:32:51;;;;;;;1.77;0.30;;;;;;;26.00;23.38;101002.16;4961614;28;20042;-71
2023/07/21 09:35:16;;;;;;;3.35;0.20;;;;;;;25.54;23.03;101009.63;4966599;28;20227;-69
2023/07/21 09:37:42;;;;;;;1.92;0.17;;;;;;;26.03;23.79;101009.91;4960908;28;20096;-70
2023/07/21 09:40:11;;;;;;;1.10;0.20;;;;;;;23.70;23.34;101005.22;4966322;28;20033;-70
2023/07/21 09:42:39;;;;;;;2.05;0.10;;;;;;;23.57;24.29;101002.03;4959789;28;20531;-70
2023/07/21 09:45:06;;;;;;;1.88;0.20;;;;;;;23.53;25.85;100997.94;4966826;28;20038;-71
2023/07/21 09:47:31;;;;;;;2.00;0.30;;;;;;;21.88;27.53;101006.44;4963655;28;20412;-70
2023/07/21 09:50:02;;;;;;;1.92;0.10;;;;;;;21.81;27.34;100999.97;4963914;28;20034;-70
2023/07/21 09:52:28;;;;;;;2.35;0.20;;;;;;;21.87;27.68;100999.44;4964147;28;20484;-71
2023/07/21 09:55:11;;;;;;;3.00;0.20;;;;;;;22.61;26.26;100995.66;4959479;28;20545;-70
2023/07/21 09:57:42;;;;;;;1.98;0.35;;;;;;;21.86;26.35;101000.41;4969361;28;20108;-71
2023/07/21 10:00:13;;;;;;;1.45;0.65;;;;;;;21.72;27.39;100997.13;4946996;28;20341;-70
2023/07/21 10:02:43;;;;;;;1.77;0.30;;;;;;;21.80;28.27;100995.63;4949822;28;20136;-70
2023/07/21 10:05:13;;;;;;;0.98;0.20;;;;;;;22.54;27.06;101001.53;4965141;28;20521;-72
2023/07/21 10:07:42;;;;;;;2.85;0.30;;;;;;;22.70;26.51;100993.03;4955177;28;20038;-70
2023/07/21 10:10:09;;;;;;;0.93;0.20;;;;;;;22.55;25.48;100989.88;4962246;28;20026;-71
2023/07/21 10:12:49;;;;;;;0.55;0.10;;;;;;;23.39;25.78;100984.09;4946621;28;20047;-70
2023/07/21 10:15:17;;;;;;;0.80;0.20;;;;;;;23.20;25.99;100992.06;4967163;28;20039;-70
2023/07/21 10:18:04;;;;;;;0.50;0.20;;;;;;;22.87;25.68;100988.00;4942169;28;20045;-67
2023/07/21 10:20:38;;;;;;;2.22;0.20;;;;;;;22.55;25.52;100984.56;4957276;28;20034;-71
2023/07/21 10:23:04;;;;;;;0.30;0.10;;;;;;;21.80;26.26;100987.63;4965126;28;20049;-71
2023/07/21 10:25:54;;;;;;;0.80;0.20;;;;;;;20.99;27.94;100987.34;4981578;28;20069;-70
2023/07/21 10:28:42;;;;;;;1.45;0.25;;;;;;;20.81;28.68;100989.66;4964421;28;20041;-71
2023/07/21 10:31:26;;;;;;;4.45;0.40;;;;;;;20.65;29.47;100990.91;4967537;28;20034;-70
2023/07/21 10:34:14;;;;;;;4.22;0.40;;;;;;;20.52;29.38;100988.41;4964319;28;20079;-72
2023/07/21 10:36:58;;;;;;;1.42;0.30;;;;;;;20.72;29.19;100985.94;4959529;28;20038;-70
2023/07/21 10:39:53;;;;;;;1.30;0.17;;;;;;;20.84;29.62;100987.66;4965143;28;20150;-70
2023/07/21 10:42:19;;;;;;;1.35;0.20;;;;;;;20.79;30.00;100996.91;4961222;28;20137;-70
2023/07/21 10:44:47;;;;;;;0.98;0.20;;;;;;;20.36;31.10;100993.28;4962366;28;20151;-70
2023/07/21 10:47:15;;;;;;;0.73;0.20;;;;;;;20.68;30.30;100989.81;4960997;28;20355;-70
2023/07/21 10:49:41;;;;;;;1.67;0.55;;;;;;;20.32;31.47;101003.28;4963413;28;20535;-71
2023/07/21 10:52:07;;;;;;;0.50;0.20;;;;;;;20.02;31.68;101003.88;4967374;28;20045;-69
2023/07/21 10:54:34;;;;;;;0.93;0.20;;;;;;;19.77;33.13;101004.94;4978973;28;20035;-69
2023/07/21 10:57:00;;;;;;;1.05;0.30;;;;;;;19.85;33.46;101007.81;4963141;28;20053;-69
2023/07/21 10:59:31;;;;;;;1.55;0.20;;;;;;;19.77;33.54;100999.63;4963260;28;20496;-70
2023/07/21 11:01:57;;;;;;;1.40;0.32;;;;;;;20.59;35.20;100996.72;4961122;28;20425;-71
2023/07/21 11:04:23;;;;;;;1.15;0.57;;;;;;;21.49;31.63;100991.13;4944098;28;20117;-70
2023/07/21 11:06:52;;;;;;;6.35;0.30;;;;;;;21.93;29.98;100989.09;4941679;28;20129;-70
2023/07/21 11:09:19;;;;;;;2.60;0.30;;;;;;;22.66;29.82;100996.09;4942391;28;20046;-71
2023/07/21 11:11:47;;;;;;;2.13;0.50;;;;;;;23.28;27.31;100992.25;4943712;28;20046;-71
2023/07/21 11:14:14;;;;;;;5.03;0.55;;;;;;;23.41;27.06;100978.63;4967651;28;20045;-70
2023/07/21 11:16:44;;;;;;;3.72;0.30;;;;;;;23.36;27.15;100976.34;4955007;28;20022;-71
2023/07/21 11:19:10;;;;;;;1.42;0.38;;;;;;;24.54;26.26;100980.28;4979744;28;20109;-71
2023/07/21 11:21:36;;;;;;;2.47;0.40;;;;;;;24.19;25.57;100978.34;4962354;28;20484;-71
2023/07/21 11:24:02;;;;;;;0.82;0.47;;;;;;;24.14;24.68;100978.78;4962191;28;20592;-71
2023/07/21 11:26:28;;;;;;;1.70;0.52;;;;;;;24.14;25.90;100973.44;4962486;28;20481;-71
2023/07/21 11:28:58;;;;;;;0.57;0.20;;;;;;;24.28;26.04;100973.94;4963961;28;20206;-71
2023/07/21 11:31:25;;;;;;;2.22;0.32;;;;;;;23.80;25.70;100960.66;4965683;28;20701;-71
2023/07/21 11:33:51;;;;;;;2.20;0.25;;;;;;;23.74;25.80;100971.06;4961159;28;20093;-74